page 8040 of 1004921 registered users

eBook PostsUsers

  1. 0minute53body registered @ 2013-06-24 16:32:05, last login @ 2013-06-24 16:32:05
  2. 0john65tie registered @ 2013-06-24 16:33:28, last login @ 2013-06-24 16:33:28
  3. 0dizzytj registered @ 2013-06-24 16:34:50, last login @ 2013-06-24 16:34:50
  4. 0burma6elbow registered @ 2013-06-24 16:35:29, last login @ 2013-06-24 16:35:29
  5. 0beerdeath9 registered @ 2013-06-24 16:38:56, last login @ 2013-06-24 16:38:56
  6. 0supplysize4 registered @ 2013-06-24 16:41:26, last login @ 2013-06-24 16:41:26
  7. 0top95bath registered @ 2013-06-24 16:41:44, last login @ 2013-06-24 16:41:44
  8. 0gloveoutput8 registered @ 2013-06-24 16:43:17, last login @ 2013-06-24 16:43:17
  9. 0banjo9bra registered @ 2013-06-24 16:44:25, last login @ 2013-06-24 16:44:25
  10. 0maja670546 registered @ 2013-06-24 16:45:04, last login @ 2013-06-24 16:45:04
  11. 0lungplough95 registered @ 2013-06-24 16:45:24, last login @ 2013-06-24 16:45:24
  12. 0scentrule68 registered @ 2013-06-24 16:45:43, last login @ 2013-06-24 16:45:43
  13. 0kneechief00 registered @ 2013-06-24 16:45:53, last login @ 2013-06-24 16:45:53
  14. 0actglove1 registered @ 2013-06-24 16:46:13, last login @ 2013-06-24 16:46:13
  15. 0spherejeans5 registered @ 2013-06-24 16:47:36, last login @ 2013-06-24 16:47:36
  16. 0Komandokroko registered @ 2013-06-24 16:49:54, last login @ 2013-06-24 16:49:54
  17. 0mallvest0 registered @ 2013-06-24 16:50:58, last login @ 2013-06-24 16:50:58
  18. 0maccosibww registered @ 2013-06-24 16:52:10, last login @ 2013-06-24 16:52:10
  19. 0earth9hour registered @ 2013-06-24 16:54:25, last login @ 2013-06-24 16:54:25
  20. 0MyncSnani registered @ 2013-06-24 16:54:47, last login @ 2013-06-24 16:54:47
  21. 0chiefwealth00 registered @ 2013-06-24 16:55:54, last login @ 2013-06-24 16:55:54
  22. 0parade1ball registered @ 2013-06-24 16:56:16, last login @ 2013-06-24 16:56:16
  23. 0cattlealto98 registered @ 2013-06-24 16:57:06, last login @ 2013-06-24 16:57:06
  24. 0motionmenu195 registered @ 2013-06-24 16:58:13, last login @ 2013-06-24 16:58:13
  25. 0unreakekeft registered @ 2013-06-24 16:59:28, last login @ 2013-06-24 16:59:28
  26. 0cicada46pants registered @ 2013-06-24 17:00:04, last login @ 2013-06-24 17:00:04
  27. 0studypen8 registered @ 2013-06-24 17:00:57, last login @ 2013-06-24 17:00:57
  28. 0august92porter registered @ 2013-06-24 17:01:32, last login @ 2013-06-24 17:01:32
  29. 0band9unit registered @ 2013-06-24 17:03:10, last login @ 2013-06-24 17:03:10
  30. 0vacuum86window registered @ 2013-06-24 17:03:58, last login @ 2013-06-24 17:03:58
  31. 0spike9rat registered @ 2013-06-24 17:04:18, last login @ 2013-06-24 17:04:18
  32. 0bee34hip registered @ 2013-06-24 17:04:27, last login @ 2013-06-24 17:04:27
  33. 0parklevel37 registered @ 2013-06-24 17:04:50, last login @ 2013-06-24 17:04:50
  34. 0break20cast registered @ 2013-06-24 17:06:04, last login @ 2013-06-24 17:06:04
  35. 0rapidremoval3 registered @ 2013-06-24 17:06:43, last login @ 2013-06-24 17:06:43
  36. 0weightguitar7 registered @ 2013-06-24 17:07:41, last login @ 2013-06-24 17:19:45
  37. 0bumeract57 registered @ 2013-06-24 17:08:21, last login @ 2013-06-24 17:57:26
  38. 0liquor8radish registered @ 2013-06-24 17:10:51, last login @ 2013-06-24 17:10:51
  39. 0pvc34sale registered @ 2013-06-24 17:11:23, last login @ 2013-06-24 17:11:23
  40. 0spearvault8 registered @ 2013-06-24 17:11:55, last login @ 2013-06-24 17:11:55
  41. 0tunaporter84 registered @ 2013-06-24 17:12:08, last login @ 2013-06-24 17:12:08
  42. 0greekpickle29 registered @ 2013-06-24 17:14:07, last login @ 2013-06-24 17:14:07
  43. 0shieldfeet8 registered @ 2013-06-24 17:14:14, last login @ 2013-06-24 17:14:14
  44. 0faucet99violin registered @ 2013-06-24 17:14:40, last login @ 2013-06-24 17:14:40
  45. 0john12waiter registered @ 2013-06-24 17:16:18, last login @ 2013-06-24 17:16:18
  46. 0danielpipe14 registered @ 2013-06-24 17:17:03, last login @ 2013-06-24 17:17:03
  47. 0camera7felony registered @ 2013-06-24 17:19:28, last login @ 2013-06-24 17:56:40
  48. 0sawsunday3 registered @ 2013-06-24 17:21:42, last login @ 2013-06-24 17:51:14
  49. 0powderparent28 registered @ 2013-06-24 17:22:28, last login @ 2013-06-24 17:22:28
  50. 0denimtv88 registered @ 2013-06-24 17:22:57, last login @ 2013-06-24 17:22:57
  51. 0webcompanies286 registered @ 2013-06-24 17:23:03, last login @ 2013-06-24 17:23:03
  52. 0tanknotify8 registered @ 2013-06-24 17:23:44, last login @ 2013-06-24 17:23:44
  53. 0epoxy25throat registered @ 2013-06-24 17:23:50, last login @ 2013-06-24 17:23:50
  54. 0hellshrine32 registered @ 2013-06-24 17:24:28, last login @ 2013-06-24 17:31:06
  55. 0border4pencil registered @ 2013-06-24 17:24:42, last login @ 2013-06-24 17:24:42
  56. 0senseadult2 registered @ 2013-06-24 17:26:11, last login @ 2013-06-24 17:26:11
  57. 0daynic5 registered @ 2013-06-24 17:26:12, last login @ 2013-06-24 17:26:12
  58. 0shoaibrasheed667 registered @ 2013-06-24 17:26:20, last login @ 2013-06-24 17:26:20
  59. 0dirt0adult registered @ 2013-06-24 17:27:13, last login @ 2013-06-24 17:27:13
  60. 0sharon1point registered @ 2013-06-24 17:31:45, last login @ 2013-06-24 17:31:45
  61. 0botanyrobin5 registered @ 2013-06-24 17:31:50, last login @ 2013-06-24 17:31:50
  62. 0wallet5shears registered @ 2013-06-24 17:32:45, last login @ 2013-06-24 17:32:45
  63. 0sieciech619464 registered @ 2013-06-24 17:33:13, last login @ 2013-06-24 17:33:13
  64. 0kite50turkey registered @ 2013-06-24 17:34:15, last login @ 2013-06-24 17:55:13
  65. 0footlove88 registered @ 2013-06-24 17:34:55, last login @ 2013-06-24 17:34:55
  66. 0yarn2tea registered @ 2013-06-24 17:35:17, last login @ 2013-06-24 17:35:17
  67. 0skin8jaguar registered @ 2013-06-24 17:36:22, last login @ 2013-06-24 17:36:22
  68. 0oilcobweb31 registered @ 2013-06-24 17:37:36, last login @ 2013-06-24 17:37:36
  69. 0flockbottom61 registered @ 2013-06-24 17:37:38, last login @ 2013-06-24 17:37:38
  70. 0bowl3quill registered @ 2013-06-24 17:38:09, last login @ 2013-06-24 17:46:30
  71. 0suede89plain registered @ 2013-06-24 17:38:42, last login @ 2013-06-24 17:38:42
  72. 0mohammadqasim registered @ 2013-06-24 17:39:09, last login @ 2013-06-24 17:39:09
  73. 0cable37army registered @ 2013-06-24 17:42:31, last login @ 2013-06-24 17:42:31
  74. 0road3cat registered @ 2013-06-24 17:42:39, last login @ 2013-06-24 17:42:39
  75. 0gearseason0 registered @ 2013-06-24 17:43:07, last login @ 2013-06-24 17:43:07
  76. 0kiss5crocus registered @ 2013-06-24 17:45:56, last login @ 2013-06-24 17:45:56
  77. 0islandmaple91 registered @ 2013-06-24 17:45:57, last login @ 2013-06-24 17:45:57
  78. 0steamsubway6 registered @ 2013-06-24 17:46:36, last login @ 2013-06-24 17:46:36
  79. 0ziyi_yang_ registered @ 2013-06-24 17:46:56, last login @ 2013-06-24 17:46:56
  80. 0dimple47scene registered @ 2013-06-24 17:47:12, last login @ 2013-06-24 17:47:12
  81. 0bagdrill46 registered @ 2013-06-24 17:47:59, last login @ 2013-06-24 17:47:59
  82. 0bladewindow77 registered @ 2013-06-24 17:48:49, last login @ 2013-06-24 17:48:49
  83. 0valley42temper registered @ 2013-06-24 17:51:09, last login @ 2013-06-24 17:51:09
  84. 0france93bar registered @ 2013-06-24 17:55:54, last login @ 2013-06-24 17:55:54
  85. 0nadaai registered @ 2013-06-24 17:57:47, last login @ 2013-06-24 17:57:47
  86. 0musclechick70 registered @ 2013-06-24 17:58:54, last login @ 2013-06-24 17:58:54
  87. 0lathekevin45 registered @ 2013-06-24 18:00:35, last login @ 2013-06-24 18:00:35
  88. 0shade71bull registered @ 2013-06-24 18:03:53, last login @ 2013-06-24 18:03:53
  89. 0leafcollar5 registered @ 2013-06-24 18:04:26, last login @ 2013-06-24 18:04:26
  90. 0actioncondor40 registered @ 2013-06-24 18:06:04, last login @ 2013-06-24 18:06:04
  91. 0eel35pocket registered @ 2013-06-24 18:06:37, last login @ 2013-06-24 18:43:14
  92. 0cable45polo registered @ 2013-06-24 18:09:01, last login @ 2013-06-24 18:09:01
  93. 0butanefood6 registered @ 2013-06-24 18:09:25, last login @ 2013-06-24 18:09:25
  94. 0soyhorse67 registered @ 2013-06-24 18:09:34, last login @ 2013-06-24 18:09:34
  95. 0dead2glider registered @ 2013-06-24 18:10:36, last login @ 2013-06-24 18:10:36
  96. 0beech20foam registered @ 2013-06-24 18:10:37, last login @ 2013-06-24 18:10:37
  97. 0jamesmount registered @ 2013-06-24 18:11:16, last login @ 2013-06-24 18:11:16
  98. 0clef52string registered @ 2013-06-24 18:11:44, last login @ 2013-06-24 18:11:44
  99. 0shell22market registered @ 2013-06-24 18:12:19, last login @ 2013-06-24 18:12:19
  100. 0vesselplate9 registered @ 2013-06-24 18:12:48, last login @ 2013-06-24 18:12:48
  101. 0land34fact registered @ 2013-06-24 18:14:19, last login @ 2013-06-24 18:14:19

More...

[8050] [8049] [8048] [8047] [8046] [8045] [8044] [8043] [8042] [8041] [8040] [8039] [8038] [8037] [8036] [8035] [8034] [8033] [8032] [8031] ...[1]
Back to Top